sensor_id;sensor_type;location;lat;lon;timestamp;pressure;altitude;pressure_sealevel;temperature;humidity
38880;BME280;25887;30.194;-97.880;2022-07-06T00:00:45;98149.63;;;39.27;30.49
38880;BME280;25887;30.194;-97.880;2022-07-06T00:03:11;98147.97;;;39.26;29.84
38880;BME280;25887;30.194;-97.880;2022-07-06T00:05:37;98149.19;;;39.23;30.34
38880;BME280;25887;30.194;-97.880;2022-07-06T00:08:03;98144.84;;;39.22;29.92
38880;BME280;25887;30.194;-97.880;2022-07-06T00:10:29;98149.56;;;39.20;30.26
38880;BME280;25887;30.194;-97.880;2022-07-06T00:12:54;98144.38;;;39.19;29.99
38880;BME280;25887;30.194;-97.880;2022-07-06T00:15:20;98146.63;;;39.15;30.04
38880;BME280;25887;30.194;-97.880;2022-07-06T00:26:55;98138.44;;;38.94;29.95
38880;BME280;25887;30.194;-97.880;2022-07-06T00:29:21;98139.47;;;38.93;30.35
38880;BME280;25887;30.194;-97.880;2022-07-06T00:31:46;98140.66;;;38.90;30.49
38880;BME280;25887;30.194;-97.880;2022-07-06T00:34:12;98141.22;;;38.86;29.91
38880;BME280;25887;30.194;-97.880;2022-07-06T00:36:38;98146.13;;;38.82;29.83
38880;BME280;25887;30.194;-97.880;2022-07-06T00:41:58;98153.44;;;38.73;30.46
38880;BME280;25887;30.194;-97.880;2022-07-06T00:44:24;98148.44;;;38.70;30.13
38880;BME280;25887;30.194;-97.880;2022-07-06T00:46:50;98152.31;;;38.68;30.38
38880;BME280;25887;30.194;-97.880;2022-07-06T00:49:16;98152.03;;;38.63;30.24
38880;BME280;25887;30.194;-97.880;2022-07-06T00:51:59;98148.69;;;38.61;30.20
38880;BME280;25887;30.194;-97.880;2022-07-06T00:54:26;98157.75;;;38.60;30.42
38880;BME280;25887;30.194;-97.880;2022-07-06T00:56:53;98153.59;;;38.57;30.88
38880;BME280;25887;30.194;-97.880;2022-07-06T00:59:19;98151.91;;;38.56;30.45
38880;BME280;25887;30.194;-97.880;2022-07-06T01:01:44;98154.97;;;38.53;30.99
38880;BME280;25887;30.194;-97.880;2022-07-06T01:04:10;98161.53;;;38.51;30.89
38880;BME280;25887;30.194;-97.880;2022-07-06T01:06:36;98163.56;;;38.49;30.33
38880;BME280;25887;30.194;-97.880;2022-07-06T01:09:02;98178.19;;;38.46;30.75
38880;BME280;25887;30.194;-97.880;2022-07-06T01:11:28;98176.06;;;38.41;31.24
38880;BME280;25887;30.194;-97.880;2022-07-06T01:13:54;98176.44;;;38.38;30.72
38880;BME280;25887;30.194;-97.880;2022-07-06T01:16:20;98176.13;;;38.33;31.08
38880;BME280;25887;30.194;-97.880;2022-07-06T01:18:46;98186.22;;;38.31;30.53
38880;BME280;25887;30.194;-97.880;2022-07-06T01:21:12;98188.41;;;38.28;31.30
38880;BME280;25887;30.194;-97.880;2022-07-06T01:23:48;98191.63;;;38.23;31.23
38880;BME280;25887;30.194;-97.880;2022-07-06T01:26:15;98187.81;;;38.17;30.54
38880;BME280;25887;30.194;-97.880;2022-07-06T01:28:41;98185.66;;;38.13;30.95
38880;BME280;25887;30.194;-97.880;2022-07-06T01:31:14;98188.88;;;38.08;31.10
38880;BME280;25887;30.194;-97.880;2022-07-06T01:33:40;98194.78;;;38.04;31.05
38880;BME280;25887;30.194;-97.880;2022-07-06T01:36:06;98202.53;;;37.99;31.18
38880;BME280;25887;30.194;-97.880;2022-07-06T01:38:32;98205.75;;;37.94;31.59
38880;BME280;25887;30.194;-97.880;2022-07-06T01:41:08;98207.97;;;37.90;31.24
38880;BME280;25887;30.194;-97.880;2022-07-06T01:43:34;98212.19;;;37.85;31.69
38880;BME280;25887;30.194;-97.880;2022-07-06T01:46:01;98209.19;;;37.80;31.22
38880;BME280;25887;30.194;-97.880;2022-07-06T01:48:27;98215.72;;;37.77;31.02
38880;BME280;25887;30.194;-97.880;2022-07-06T01:50:53;98222.44;;;37.73;31.81
38880;BME280;25887;30.194;-97.880;2022-07-06T01:53:19;98212.25;;;37.69;31.35
38880;BME280;25887;30.194;-97.880;2022-07-06T01:55:44;98208.25;;;37.64;31.58
38880;BME280;25887;30.194;-97.880;2022-07-06T01:58:10;98203.44;;;37.60;31.79
38880;BME280;25887;30.194;-97.880;2022-07-06T02:00:36;98216.31;;;37.56;31.72
38880;BME280;25887;30.194;-97.880;2022-07-06T02:03:01;98212.34;;;37.52;31.72
38880;BME280;25887;30.194;-97.880;2022-07-06T02:05:27;98212.84;;;37.48;31.41
38880;BME280;25887;30.194;-97.880;2022-07-06T02:08:05;98221.41;;;37.43;31.71
38880;BME280;25887;30.194;-97.880;2022-07-06T02:10:31;98219.44;;;37.37;31.92
38880;BME280;25887;30.194;-97.880;2022-07-06T02:12:57;98229.16;;;37.30;31.82
38880;BME280;25887;30.194;-97.880;2022-07-06T02:15:23;98229.84;;;37.24;31.75
38880;BME280;25887;30.194;-97.880;2022-07-06T02:17:48;98228.03;;;37.16;31.58
38880;BME280;25887;30.194;-97.880;2022-07-06T02:20:14;98229.72;;;37.09;31.76
38880;BME280;25887;30.194;-97.880;2022-07-06T02:22:40;98229.75;;;37.01;31.67
38880;BME280;25887;30.194;-97.880;2022-07-06T02:25:06;98237.63;;;36.94;31.67
38880;BME280;25887;30.194;-97.880;2022-07-06T02:27:32;98237.63;;;36.86;31.83
38880;BME280;25887;30.194;-97.880;2022-07-06T02:29:57;98250.84;;;36.79;32.13
38880;BME280;25887;30.194;-97.880;2022-07-06T02:32:35;98249.00;;;36.72;32.52
38880;BME280;25887;30.194;-97.880;2022-07-06T02:35:22;98256.03;;;36.65;32.34
38880;BME280;25887;30.194;-97.880;2022-07-06T02:44:14;98265.72;;;36.41;33.11
38880;BME280;25887;30.194;-97.880;2022-07-06T02:46:40;98262.00;;;36.34;33.05
38880;BME280;25887;30.194;-97.880;2022-07-06T02:49:05;98272.41;;;36.29;33.56
38880;BME280;25887;30.194;-97.880;2022-07-06T02:51:31;98269.38;;;36.24;33.09
38880;BME280;25887;30.194;-97.880;2022-07-06T02:53:57;98278.75;;;36.20;33.33
38880;BME280;25887;30.194;-97.880;2022-07-06T02:56:23;98292.59;;;36.15;33.54
38880;BME280;25887;30.194;-97.880;2022-07-06T02:58:48;98303.78;;;36.11;33.80
38880;BME280;25887;30.194;-97.880;2022-07-06T03:01:14;98307.63;;;36.08;33.75
38880;BME280;25887;30.194;-97.880;2022-07-06T03:03:40;98302.78;;;36.04;33.99
38880;BME280;25887;30.194;-97.880;2022-07-06T03:06:06;98300.59;;;35.99;34.20
38880;BME280;25887;30.194;-97.880;2022-07-06T03:08:32;98306.59;;;35.93;34.34
38880;BME280;25887;30.194;-97.880;2022-07-06T03:11:28;98321.41;;;35.87;34.36
38880;BME280;25887;30.194;-97.880;2022-07-06T03:13:53;98328.09;;;35.83;34.54
38880;BME280;25887;30.194;-97.880;2022-07-06T03:16:35;98329.56;;;35.78;34.67
38880;BME280;25887;30.194;-97.880;2022-07-06T03:19:01;98325.69;;;35.72;34.90
38880;BME280;25887;30.194;-97.880;2022-07-06T03:21:27;98327.00;;;35.68;34.69
38880;BME280;25887;30.194;-97.880;2022-07-06T03:23:54;98336.34;;;35.64;35.05
38880;BME280;25887;30.194;-97.880;2022-07-06T03:26:20;98341.34;;;35.59;35.23
38880;BME280;25887;30.194;-97.880;2022-07-06T03:28:46;98348.31;;;35.52;35.59
38880;BME280;25887;30.194;-97.880;2022-07-06T03:31:11;98359.47;;;35.47;35.26
38880;BME280;25887;30.194;-97.880;2022-07-06T03:33:37;98357.28;;;35.42;35.41
38880;BME280;25887;30.194;-97.880;2022-07-06T03:36:03;98370.06;;;35.39;35.51
38880;BME280;25887;30.194;-97.880;2022-07-06T03:38:30;98377.59;;;35.35;35.57
38880;BME280;25887;30.194;-97.880;2022-07-06T03:40:56;98384.22;;;35.31;35.64
38880;BME280;25887;30.194;-97.880;2022-07-06T03:43:22;98384.72;;;35.27;35.77
38880;BME280;25887;30.194;-97.880;2022-07-06T03:45:48;98381.50;;;35.23;35.92
38880;BME280;25887;30.194;-97.880;2022-07-06T03:54:34;98397.88;;;35.02;36.16
38880;BME280;25887;30.194;-97.880;2022-07-06T04:03:08;98399.50;;;34.85;36.86
38880;BME280;25887;30.194;-97.880;2022-07-06T04:05:44;98408.84;;;34.81;36.47
38880;BME280;25887;30.194;-97.880;2022-07-06T04:11:10;98413.09;;;34.74;36.48
38880;BME280;25887;30.194;-97.880;2022-07-06T04:13:36;98415.09;;;34.72;36.78
38880;BME280;25887;30.194;-97.880;2022-07-06T04:16:04;98424.09;;;34.71;36.83
38880;BME280;25887;30.194;-97.880;2022-07-06T04:18:30;98413.84;;;34.67;36.85
38880;BME280;25887;30.194;-97.880;2022-07-06T04:21:04;98414.16;;;34.63;36.88
38880;BME280;25887;30.194;-97.880;2022-07-06T04:24:08;98415.06;;;34.54;37.25
38880;BME280;25887;30.194;-97.880;2022-07-06T04:26:34;98420.31;;;34.46;37.65
38880;BME280;25887;30.194;-97.880;2022-07-06T04:29:00;98427.09;;;34.41;37.74
38880;BME280;25887;30.194;-97.880;2022-07-06T04:31:26;98425.16;;;34.33;37.49
38880;BME280;25887;30.194;-97.880;2022-07-06T04:33:52;98425.56;;;34.28;37.56
38880;BME280;25887;30.194;-97.880;2022-07-06T04:36:28;98422.50;;;34.23;37.65
38880;BME280;25887;30.194;-97.880;2022-07-06T04:39:12;98430.13;;;34.18;38.09
38880;BME280;25887;30.194;-97.880;2022-07-06T04:41:38;98431.41;;;34.14;37.96
38880;BME280;25887;30.194;-97.880;2022-07-06T04:44:03;98441.53;;;34.11;38.29
38880;BME280;25887;30.194;-97.880;2022-07-06T04:46:29;98443.94;;;34.04;38.36
38880;BME280;25887;30.194;-97.880;2022-07-06T04:48:55;98440.03;;;33.98;38.64
38880;BME280;25887;30.194;-97.880;2022-07-06T04:51:21;98437.81;;;33.94;38.43
38880;BME280;25887;30.194;-97.880;2022-07-06T04:53:46;98441.75;;;33.90;38.01
38880;BME280;25887;30.194;-97.880;2022-07-06T04:56:12;98433.31;;;33.85;38.55
38880;BME280;25887;30.194;-97.880;2022-07-06T04:58:38;98443.59;;;33.79;38.52
38880;BME280;25887;30.194;-97.880;2022-07-06T05:01:05;98439.50;;;33.75;38.70
38880;BME280;25887;30.194;-97.880;2022-07-06T05:03:31;98438.00;;;33.73;38.89
38880;BME280;25887;30.194;-97.880;2022-07-06T05:06:00;98442.91;;;33.68;38.83
38880;BME280;25887;30.194;-97.880;2022-07-06T05:08:25;98455.84;;;33.63;39.20
38880;BME280;25887;30.194;-97.880;2022-07-06T05:10:51;98448.41;;;33.57;39.05
38880;BME280;25887;30.194;-97.880;2022-07-06T05:13:17;98457.66;;;33.52;39.21
38880;BME280;25887;30.194;-97.880;2022-07-06T05:15:43;98459.94;;;33.47;39.57
38880;BME280;25887;30.194;-97.880;2022-07-06T05:18:09;98461.03;;;33.45;39.04
38880;BME280;25887;30.194;-97.880;2022-07-06T05:20:35;98454.34;;;33.41;39.53
38880;BME280;25887;30.194;-97.880;2022-07-06T05:23:00;98453.75;;;33.37;39.53
38880;BME280;25887;30.194;-97.880;2022-07-06T05:25:26;98458.50;;;33.34;39.60
38880;BME280;25887;30.194;-97.880;2022-07-06T05:27:52;98452.50;;;33.32;39.06
38880;BME280;25887;30.194;-97.880;2022-07-06T05:30:18;98455.56;;;33.27;39.17
38880;BME280;25887;30.194;-97.880;2022-07-06T05:32:44;98441.81;;;33.22;39.39
38880;BME280;25887;30.194;-97.880;2022-07-06T05:35:09;98451.09;;;33.18;39.99
38880;BME280;25887;30.194;-97.880;2022-07-06T05:37:35;98444.50;;;33.12;39.60
38880;BME280;25887;30.194;-97.880;2022-07-06T05:40:01;98445.06;;;33.06;40.13
38880;BME280;25887;30.194;-97.880;2022-07-06T05:42:27;98450.97;;;33.00;39.68
38880;BME280;25887;30.194;-97.880;2022-07-06T05:44:55;98456.69;;;32.95;40.21
38880;BME280;25887;30.194;-97.880;2022-07-06T05:47:21;98456.16;;;32.92;39.94
38880;BME280;25887;30.194;-97.880;2022-07-06T05:50:06;98457.38;;;32.88;40.22
38880;BME280;25887;30.194;-97.880;2022-07-06T05:52:41;98463.91;;;32.84;40.31
38880;BME280;25887;30.194;-97.880;2022-07-06T05:55:08;98472.19;;;32.81;39.85
38880;BME280;25887;30.194;-97.880;2022-07-06T05:57:35;98458.44;;;32.76;40.24
38880;BME280;25887;30.194;-97.880;2022-07-06T06:00:01;98470.06;;;32.75;40.21
38880;BME280;25887;30.194;-97.880;2022-07-06T06:02:26;98468.53;;;32.72;40.05
38880;BME280;25887;30.194;-97.880;2022-07-06T06:04:52;98465.31;;;32.68;39.77
38880;BME280;25887;30.194;-97.880;2022-07-06T06:07:18;98458.59;;;32.64;40.07
38880;BME280;25887;30.194;-97.880;2022-07-06T06:09:44;98455.38;;;32.61;40.08
38880;BME280;25887;30.194;-97.880;2022-07-06T06:12:10;98457.44;;;32.57;40.05
38880;BME280;25887;30.194;-97.880;2022-07-06T06:14:36;98454.22;;;32.54;40.32
38880;BME280;25887;30.194;-97.880;2022-07-06T06:17:02;98458.13;;;32.50;40.20
38880;BME280;25887;30.194;-97.880;2022-07-06T06:19:34;98447.88;;;32.45;40.37
38880;BME280;25887;30.194;-97.880;2022-07-06T06:22:01;98455.31;;;32.41;40.42
38880;BME280;25887;30.194;-97.880;2022-07-06T06:24:27;98454.75;;;32.38;40.26
38880;BME280;25887;30.194;-97.880;2022-07-06T06:26:53;98444.66;;;32.32;40.23
38880;BME280;25887;30.194;-97.880;2022-07-06T06:29:19;98447.53;;;32.29;40.44
38880;BME280;25887;30.194;-97.880;2022-07-06T06:31:45;98438.16;;;32.25;40.54
38880;BME280;25887;30.194;-97.880;2022-07-06T06:34:11;98445.69;;;32.20;40.40
38880;BME280;25887;30.194;-97.880;2022-07-06T06:36:36;98448.78;;;32.15;41.04
38880;BME280;25887;30.194;-97.880;2022-07-06T06:39:02;98439.50;;;32.09;40.81
38880;BME280;25887;30.194;-97.880;2022-07-06T06:41:28;98437.22;;;32.05;41.07
38880;BME280;25887;30.194;-97.880;2022-07-06T06:43:54;98442.13;;;32.00;40.90
38880;BME280;25887;30.194;-97.880;2022-07-06T06:46:19;98438.88;;;31.96;40.95
38880;BME280;25887;30.194;-97.880;2022-07-06T06:48:45;98435.66;;;31.93;41.10
38880;BME280;25887;30.194;-97.880;2022-07-06T06:51:11;98437.47;;;31.92;40.81
38880;BME280;25887;30.194;-97.880;2022-07-06T06:53:37;98439.53;;;31.88;40.87
38880;BME280;25887;30.194;-97.880;2022-07-06T06:56:03;98435.50;;;31.84;41.12
38880;BME280;25887;30.194;-97.880;2022-07-06T06:58:28;98426.78;;;31.82;41.18
38880;BME280;25887;30.194;-97.880;2022-07-06T07:00:54;98427.06;;;31.79;41.19
38880;BME280;25887;30.194;-97.880;2022-07-06T07:03:20;98434.34;;;31.77;41.20
38880;BME280;25887;30.194;-97.880;2022-07-06T07:05:46;98436.25;;;31.75;41.33
38880;BME280;25887;30.194;-97.880;2022-07-06T07:08:13;98434.69;;;31.73;41.16
38880;BME280;25887;30.194;-97.880;2022-07-06T07:10:39;98428.66;;;31.71;41.50
38880;BME280;25887;30.194;-97.880;2022-07-06T07:13:05;98429.78;;;31.68;41.69
38880;BME280;25887;30.194;-97.880;2022-07-06T07:15:30;98426.53;;;31.65;41.65
38880;BME280;25887;30.194;-97.880;2022-07-06T07:17:56;98421.50;;;31.61;41.46
38880;BME280;25887;30.194;-97.880;2022-07-06T07:20:22;98423.56;;;31.58;41.57
38880;BME280;25887;30.194;-97.880;2022-07-06T07:22:48;98425.66;;;31.54;41.74
38880;BME280;25887;30.194;-97.880;2022-07-06T07:25:13;98433.84;;;31.51;42.16
38880;BME280;25887;30.194;-97.880;2022-07-06T07:27:40;98441.25;;;31.48;42.06
38880;BME280;25887;30.194;-97.880;2022-07-06T07:30:06;98433.66;;;31.43;42.05
38880;BME280;25887;30.194;-97.880;2022-07-06T07:32:32;98433.09;;;31.40;42.38
38880;BME280;25887;30.194;-97.880;2022-07-06T07:34:58;98430.72;;;31.37;42.37
38880;BME280;25887;30.194;-97.880;2022-07-06T07:37:23;98421.31;;;31.32;42.59
38880;BME280;25887;30.194;-97.880;2022-07-06T07:39:49;98427.59;;;31.31;42.38
38880;BME280;25887;30.194;-97.880;2022-07-06T07:42:15;98424.22;;;31.29;42.45
38880;BME280;25887;30.194;-97.880;2022-07-06T07:44:41;98418.31;;;31.26;42.70
38880;BME280;25887;30.194;-97.880;2022-07-06T07:47:07;98420.41;;;31.22;42.95
38880;BME280;25887;30.194;-97.880;2022-07-06T07:49:32;98416.41;;;31.17;43.01
38880;BME280;25887;30.194;-97.880;2022-07-06T07:52:00;98418.50;;;31.13;43.08
38880;BME280;25887;30.194;-97.880;2022-07-06T07:54:27;98421.38;;;31.10;43.60
38880;BME280;25887;30.194;-97.880;2022-07-06T07:56:53;98423.47;;;31.06;43.68
38880;BME280;25887;30.194;-97.880;2022-07-06T07:59:19;98422.03;;;31.02;43.78
38880;BME280;25887;30.194;-97.880;2022-07-06T08:01:45;98423.13;;;31.00;43.72
38880;BME280;25887;30.194;-97.880;2022-07-06T08:04:10;98426.03;;;30.97;43.82
38880;BME280;25887;30.194;-97.880;2022-07-06T08:06:36;98431.59;;;30.94;43.66
38880;BME280;25887;30.194;-97.880;2022-07-06T08:09:02;98438.72;;;30.93;43.80
38880;BME280;25887;30.194;-97.880;2022-07-06T08:11:30;98434.53;;;30.91;43.82
38880;BME280;25887;30.194;-97.880;2022-07-06T08:13:56;98441.75;;;30.89;44.02
38880;BME280;25887;30.194;-97.880;2022-07-06T08:16:22;98439.22;;;30.87;43.95
38880;BME280;25887;30.194;-97.880;2022-07-06T08:18:48;98434.03;;;30.86;44.02
38880;BME280;25887;30.194;-97.880;2022-07-06T08:21:13;98436.97;;;30.83;44.16
38880;BME280;25887;30.194;-97.880;2022-07-06T08:23:39;98437.06;;;30.81;44.24
38880;BME280;25887;30.194;-97.880;2022-07-06T08:26:05;98438.03;;;30.80;44.21
38880;BME280;25887;30.194;-97.880;2022-07-06T08:28:31;98427.56;;;30.78;44.31
38880;BME280;25887;30.194;-97.880;2022-07-06T08:30:57;98431.31;;;30.76;44.27
38880;BME280;25887;30.194;-97.880;2022-07-06T08:33:23;98430.47;;;30.75;44.38
38880;BME280;25887;30.194;-97.880;2022-07-06T08:35:49;98426.13;;;30.74;44.33
38880;BME280;25887;30.194;-97.880;2022-07-06T08:38:14;98425.25;;;30.74;44.30
38880;BME280;25887;30.194;-97.880;2022-07-06T08:40:40;98427.22;;;30.72;44.44
38880;BME280;25887;30.194;-97.880;2022-07-06T08:43:08;98417.56;;;30.71;44.30
38880;BME280;25887;30.194;-97.880;2022-07-06T08:45:34;98414.22;;;30.69;44.67
38880;BME280;25887;30.194;-97.880;2022-07-06T08:48:04;98413.38;;;30.68;44.45
38880;BME280;25887;30.194;-97.880;2022-07-06T08:50:30;98418.81;;;30.67;44.55
38880;BME280;25887;30.194;-97.880;2022-07-06T08:52:57;98424.19;;;30.65;44.50
38880;BME280;25887;30.194;-97.880;2022-07-06T08:55:22;98433.94;;;30.65;44.72
38880;BME280;25887;30.194;-97.880;2022-07-06T08:57:50;98425.28;;;30.63;44.53
38880;BME280;25887;30.194;-97.880;2022-07-06T09:00:15;98423.59;;;30.62;44.68
38880;BME280;25887;30.194;-97.880;2022-07-06T09:02:41;98427.22;;;30.61;44.67
38880;BME280;25887;30.194;-97.880;2022-07-06T09:05:08;98427.34;;;30.59;44.72
38880;BME280;25887;30.194;-97.880;2022-07-06T09:07:34;98421.31;;;30.57;44.77
38880;BME280;25887;30.194;-97.880;2022-07-06T09:10:00;98418.66;;;30.57;44.55
38880;BME280;25887;30.194;-97.880;2022-07-06T09:12:27;98418.78;;;30.56;44.76
38880;BME280;25887;30.194;-97.880;2022-07-06T09:14:56;98415.44;;;30.54;44.87
38880;BME280;25887;30.194;-97.880;2022-07-06T09:17:25;98414.59;;;30.53;44.96
38880;BME280;25887;30.194;-97.880;2022-07-06T09:19:51;98410.34;;;30.50;44.95
38880;BME280;25887;30.194;-97.880;2022-07-06T09:22:32;98415.78;;;30.49;44.82
38880;BME280;25887;30.194;-97.880;2022-07-06T09:25:04;98414.09;;;30.48;44.83
38880;BME280;25887;30.194;-97.880;2022-07-06T09:27:31;98417.84;;;30.45;44.96
38880;BME280;25887;30.194;-97.880;2022-07-06T09:30:00;98416.19;;;30.44;44.80
38880;BME280;25887;30.194;-97.880;2022-07-06T09:32:27;98419.81;;;30.43;44.91
38880;BME280;25887;30.194;-97.880;2022-07-06T09:34:52;98420.03;;;30.40;45.05
38880;BME280;25887;30.194;-97.880;2022-07-06T09:37:19;98424.50;;;30.40;45.02
38880;BME280;25887;30.194;-97.880;2022-07-06T09:39:46;98428.13;;;30.39;45.07
38880;BME280;25887;30.194;-97.880;2022-07-06T09:42:12;98430.06;;;30.37;45.34
38880;BME280;25887;30.194;-97.880;2022-07-06T09:44:39;98432.84;;;30.35;45.16
38880;BME280;25887;30.194;-97.880;2022-07-06T09:47:06;98422.31;;;30.34;45.13
38880;BME280;25887;30.194;-97.880;2022-07-06T09:49:33;98432.34;;;30.30;45.18
38880;BME280;25887;30.194;-97.880;2022-07-06T09:51:59;98432.47;;;30.29;45.26
38880;BME280;25887;30.194;-97.880;2022-07-06T09:54:25;98431.84;;;30.25;45.26
38880;BME280;25887;30.194;-97.880;2022-07-06T09:56:52;98431.28;;;30.21;45.41
38880;BME280;25887;30.194;-97.880;2022-07-06T09:59:19;98433.94;;;30.21;45.35
38880;BME280;25887;30.194;-97.880;2022-07-06T10:01:46;98436.72;;;30.20;45.49
38880;BME280;25887;30.194;-97.880;2022-07-06T10:04:13;98431.63;;;30.17;45.61
38880;BME280;25887;30.194;-97.880;2022-07-06T10:06:39;98437.06;;;30.15;45.66
38880;BME280;25887;30.194;-97.880;2022-07-06T10:09:06;98444.28;;;30.13;45.62
38880;BME280;25887;30.194;-97.880;2022-07-06T10:11:33;98446.09;;;30.13;45.40
38880;BME280;25887;30.194;-97.880;2022-07-06T10:13:59;98442.00;;;30.09;45.69
38880;BME280;25887;30.194;-97.880;2022-07-06T10:16:26;98442.09;;;30.07;45.44
38880;BME280;25887;30.194;-97.880;2022-07-06T10:18:53;98443.91;;;30.07;45.80
38880;BME280;25887;30.194;-97.880;2022-07-06T10:21:21;98437.97;;;30.03;45.82
38880;BME280;25887;30.194;-97.880;2022-07-06T10:23:48;98432.81;;;30.02;45.71
38880;BME280;25887;30.194;-97.880;2022-07-06T10:26:14;98434.75;;;30.00;45.66
38880;BME280;25887;30.194;-97.880;2022-07-06T10:28:41;98437.53;;;29.98;45.79
38880;BME280;25887;30.194;-97.880;2022-07-06T10:31:07;98440.28;;;29.96;45.57
38880;BME280;25887;30.194;-97.880;2022-07-06T10:33:33;98443.16;;;29.93;45.98
38880;BME280;25887;30.194;-97.880;2022-07-06T10:35:59;98443.28;;;29.92;46.01
38880;BME280;25887;30.194;-97.880;2022-07-06T10:38:32;98440.91;;;29.89;46.13
38880;BME280;25887;30.194;-97.880;2022-07-06T10:41:05;98433.28;;;29.84;45.83
38880;BME280;25887;30.194;-97.880;2022-07-06T10:43:35;98429.19;;;29.80;46.05
38880;BME280;25887;30.194;-97.880;2022-07-06T10:46:05;98422.44;;;29.76;46.06
38880;BME280;25887;30.194;-97.880;2022-07-06T10:48:35;98422.72;;;29.73;46.31
38880;BME280;25887;30.194;-97.880;2022-07-06T10:51:01;98429.19;;;29.69;46.43
38880;BME280;25887;30.194;-97.880;2022-07-06T10:53:33;98431.97;;;29.67;46.03
38880;BME280;25887;30.194;-97.880;2022-07-06T10:56:00;98442.78;;;29.64;46.03
38880;BME280;25887;30.194;-97.880;2022-07-06T10:58:39;98454.31;;;29.63;46.64
38880;BME280;25887;30.194;-97.880;2022-07-06T11:01:06;98463.34;;;29.61;46.19
38880;BME280;25887;30.194;-97.880;2022-07-06T11:03:32;98464.31;;;29.60;46.39
38880;BME280;25887;30.194;-97.880;2022-07-06T11:05:59;98466.13;;;29.59;46.55
38880;BME280;25887;30.194;-97.880;2022-07-06T11:11:16;98470.81;;;29.56;46.70
38880;BME280;25887;30.194;-97.880;2022-07-06T11:16:15;98469.38;;;29.52;46.39
38880;BME280;25887;30.194;-97.880;2022-07-06T11:18:42;98476.59;;;29.50;46.42
38880;BME280;25887;30.194;-97.880;2022-07-06T11:21:15;98483.63;;;29.49;46.41
38880;BME280;25887;30.194;-97.880;2022-07-06T11:23:43;98477.59;;;29.47;46.62
38880;BME280;25887;30.194;-97.880;2022-07-06T11:26:10;98475.09;;;29.46;46.63
38880;BME280;25887;30.194;-97.880;2022-07-06T11:28:37;98477.00;;;29.44;46.58
38880;BME280;25887;30.194;-97.880;2022-07-06T11:31:03;98475.31;;;29.42;47.11
38880;BME280;25887;30.194;-97.880;2022-07-06T11:33:29;98469.41;;;29.39;46.89
38880;BME280;25887;30.194;-97.880;2022-07-06T11:36:16;98478.19;;;29.39;46.73
38880;BME280;25887;30.194;-97.880;2022-07-06T11:38:41;98480.97;;;29.38;46.99
38880;BME280;25887;30.194;-97.880;2022-07-06T11:41:07;98469.66;;;29.36;46.95
38880;BME280;25887;30.194;-97.880;2022-07-06T11:43:33;98467.13;;;29.34;46.81
38880;BME280;25887;30.194;-97.880;2022-07-06T11:45:59;98465.41;;;29.33;46.84
38880;BME280;25887;30.194;-97.880;2022-07-06T11:48:24;98471.66;;;29.32;47.07
38880;BME280;25887;30.194;-97.880;2022-07-06T11:51:00;98469.25;;;29.29;47.09
38880;BME280;25887;30.194;-97.880;2022-07-06T11:53:26;98469.25;;;29.29;46.96
38880;BME280;25887;30.194;-97.880;2022-07-06T11:55:52;98465.91;;;29.27;47.12
38880;BME280;25887;30.194;-97.880;2022-07-06T11:58:22;98464.22;;;29.26;47.47
38880;BME280;25887;30.194;-97.880;2022-07-06T12:01:07;98458.16;;;29.24;47.14
38880;BME280;25887;30.194;-97.880;2022-07-06T12:03:33;98461.78;;;29.23;47.11
38880;BME280;25887;30.194;-97.880;2022-07-06T12:06:03;98463.69;;;29.21;47.14
38880;BME280;25887;30.194;-97.880;2022-07-06T12:08:29;98462.03;;;29.20;47.47
38880;BME280;25887;30.194;-97.880;2022-07-06T12:10:55;98464.66;;;29.20;47.52
38880;BME280;25887;30.194;-97.880;2022-07-06T12:13:22;98468.28;;;29.19;47.58
38880;BME280;25887;30.194;-97.880;2022-07-06T12:15:48;98473.56;;;29.19;47.27
38880;BME280;25887;30.194;-97.880;2022-07-06T12:18:14;98477.16;;;29.18;47.77
38880;BME280;25887;30.194;-97.880;2022-07-06T12:20:40;98478.84;;;29.19;47.77
38880;BME280;25887;30.194;-97.880;2022-07-06T12:23:06;98474.41;;;29.20;47.42
38880;BME280;25887;30.194;-97.880;2022-07-06T12:25:33;98475.25;;;29.20;47.65
38880;BME280;25887;30.194;-97.880;2022-07-06T12:27:59;98479.56;;;29.21;47.87
38880;BME280;25887;30.194;-97.880;2022-07-06T12:30:25;98477.78;;;29.22;47.48
38880;BME280;25887;30.194;-97.880;2022-07-06T12:35:35;98475.00;;;29.23;47.66
38880;BME280;25887;30.194;-97.880;2022-07-06T12:38:01;98481.16;;;29.24;47.89
38880;BME280;25887;30.194;-97.880;2022-07-06T12:40:27;98474.88;;;29.25;48.03
38880;BME280;25887;30.194;-97.880;2022-07-06T12:42:53;98473.94;;;29.26;48.26
38880;BME280;25887;30.194;-97.880;2022-07-06T12:45:18;98482.63;;;29.28;48.19
38880;BME280;25887;30.194;-97.880;2022-07-06T12:47:57;98479.84;;;29.29;48.31
38880;BME280;25887;30.194;-97.880;2022-07-06T12:50:34;98489.47;;;29.30;48.10
38880;BME280;25887;30.194;-97.880;2022-07-06T12:53:00;98494.53;;;29.33;48.34
38880;BME280;25887;30.194;-97.880;2022-07-06T12:55:27;98494.44;;;29.35;48.57
38880;BME280;25887;30.194;-97.880;2022-07-06T12:57:53;98494.19;;;29.38;48.21
38880;BME280;25887;30.194;-97.880;2022-07-06T13:00:19;98494.91;;;29.40;48.36
38880;BME280;25887;30.194;-97.880;2022-07-06T13:02:47;98500.97;;;29.42;48.58
38880;BME280;25887;30.194;-97.880;2022-07-06T13:05:56;98510.47;;;29.45;48.21
38880;BME280;25887;30.194;-97.880;2022-07-06T13:11:12;98517.84;;;29.52;48.36
38880;BME280;25887;30.194;-97.880;2022-07-06T13:14:14;98522.06;;;29.55;48.77
38880;BME280;25887;30.194;-97.880;2022-07-06T13:19:42;98517.16;;;29.61;49.04
38880;BME280;25887;30.194;-97.880;2022-07-06T13:22:08;98510.78;;;29.64;48.97
38880;BME280;25887;30.194;-97.880;2022-07-06T13:24:34;98517.41;;;29.69;49.14
38880;BME280;25887;30.194;-97.880;2022-07-06T13:27:00;98512.84;;;29.72;49.36
38880;BME280;25887;30.194;-97.880;2022-07-06T13:29:26;98522.47;;;29.73;49.41